createdAt,value
2019-03-30T00:02:09.011Z,64.45
2019-03-30T00:04:37.518Z,66.05
2019-03-30T00:07:06.037Z,61.45
2019-03-30T00:09:34.489Z,62.95
2019-03-30T00:12:03.114Z,63.38
2019-03-30T00:14:31.589Z,60.30
2019-03-30T00:17:00.152Z,59.20
2019-03-30T00:19:34.711Z,58.52
2019-03-30T00:21:58.784Z,59.27
2019-03-30T00:24:27.237Z,56.85
2019-03-30T00:26:55.663Z,58.05
2019-03-30T00:29:24.111Z,63.65
2019-03-30T00:31:52.569Z,63.15
2019-03-30T00:34:21.097Z,65.55
2019-03-30T00:36:49.534Z,63.48
2019-03-30T00:39:17.966Z,64.47
2019-03-30T00:41:46.412Z,66.50
2019-03-30T00:44:14.918Z,64.17
2019-03-30T00:46:43.389Z,67.03
2019-03-30T00:49:11.838Z,66.47
2019-03-30T00:51:40.285Z,66.15
2019-03-30T00:54:08.730Z,59.88
2019-03-30T00:56:37.184Z,66.22
2019-03-30T00:59:05.653Z,63.08
2019-03-30T01:01:34.085Z,61.40
2019-03-30T01:04:02.523Z,65.83
2019-03-30T01:06:30.971Z,59.40
2019-03-30T01:08:59.409Z,61.50
2019-03-30T01:11:27.849Z,65.05
2019-03-30T01:13:56.294Z,64.03
2019-03-30T01:16:24.813Z,62.48
2019-03-30T01:18:53.281Z,62.17
2019-03-30T01:21:21.729Z,64.37
2019-03-30T01:23:50.162Z,65.72
2019-03-30T01:26:18.598Z,60.90
2019-03-30T01:28:47.201Z,62.08
2019-03-30T01:31:15.726Z,62.08
2019-03-30T01:33:44.187Z,65.08
2019-03-30T01:36:12.698Z,62.45
2019-03-30T01:38:41.134Z,58.58
2019-03-30T01:41:09.560Z,58.58
2019-03-30T01:43:38.001Z,60.38
2019-03-30T01:46:06.429Z,58.28
2019-03-30T01:48:34.873Z,59.25
2019-03-30T01:51:03.328Z,54.10
2019-03-30T01:53:31.770Z,57.75
2019-03-30T01:56:00.220Z,57.45
2019-03-30T01:58:28.642Z,54.00
2019-03-30T02:00:57.104Z,54.25
2019-03-30T02:03:25.513Z,58.55
2019-03-30T02:05:53.977Z,58.13
2019-03-30T02:08:22.430Z,58.60
2019-03-30T02:10:50.851Z,55.05
2019-03-30T02:13:19.317Z,55.85
2019-03-30T02:15:47.810Z,54.83
2019-03-30T02:18:16.286Z,58.60
2019-03-30T02:20:46.452Z,56.60
2019-03-30T02:23:15.143Z,59.08
2019-03-30T02:25:43.661Z,59.10
2019-03-30T02:28:12.228Z,61.42
2019-03-30T02:30:40.838Z,64.27
2019-03-30T02:33:09.545Z,66.17
2019-03-30T02:35:38.065Z,69.42
2019-03-30T02:38:06.518Z,68.67
2019-03-30T02:40:34.936Z,65.15
2019-03-30T02:43:03.377Z,68.25
2019-03-30T02:45:31.807Z,74.10
2019-03-30T02:48:00.234Z,76.15
2019-03-30T02:50:28.696Z,71.97
2019-03-30T02:52:57.196Z,70.12
2019-03-30T02:55:25.704Z,73.33
2019-03-30T02:57:54.153Z,70.60
2019-03-30T03:00:22.658Z,75.60
2019-03-30T03:02:51.122Z,78.37
2019-03-30T03:05:21.705Z,77.05
2019-03-30T03:07:50.131Z,79.30
2019-03-30T03:10:19.119Z,77.53
2019-03-30T03:12:47.632Z,79.85
2019-03-30T03:15:16.231Z,76.85
2019-03-30T03:17:44.747Z,74.67
2019-03-30T03:20:13.533Z,74.65
2019-03-30T03:22:41.973Z,80.40
2019-03-30T03:25:10.478Z,79.75
2019-03-30T03:27:38.939Z,77.10
2019-03-30T03:30:08.216Z,76.65
2019-03-30T03:32:36.683Z,73.47
2019-03-30T03:35:06.363Z,75.60
2019-03-30T03:37:44.622Z,76.53
2019-03-30T03:40:07.853Z,79.25
2019-03-30T03:42:36.309Z,84.62
2019-03-30T03:45:07.127Z,84.28
2019-03-30T03:47:35.653Z,80.12
2019-03-30T03:50:04.783Z,75.20
2019-03-30T03:52:33.401Z,77.95
2019-03-30T03:55:02.548Z,76.35
2019-03-30T03:57:33.871Z,76.55
2019-03-30T04:00:03.939Z,72.82
2019-03-30T04:02:35.797Z,77.82
2019-03-30T04:05:06.067Z,77.25
2019-03-30T04:07:36.728Z,81.82
2019-03-30T04:10:05.526Z,83.30
2019-03-30T04:12:36.775Z,85.50
2019-03-30T04:15:07.691Z,85.38
2019-03-30T04:17:36.375Z,87.33
2019-03-30T04:20:06.367Z,89.58
2019-03-30T04:22:34.790Z,79.27
2019-03-30T04:25:03.988Z,73.37
2019-03-30T04:27:32.507Z,74.85
2019-03-30T04:30:00.966Z,67.45
2019-03-30T04:32:29.406Z,73.97
2019-03-30T04:34:57.881Z,72.50
2019-03-30T04:37:26.369Z,70.78
2019-03-30T04:39:54.815Z,74.20
2019-03-30T04:42:23.259Z,73.52
2019-03-30T04:44:51.787Z,75.28
2019-03-30T04:47:20.238Z,79.58
2019-03-30T04:49:48.685Z,79.20
2019-03-30T04:52:17.114Z,74.20
2019-03-30T04:54:45.557Z,79.00
2019-03-30T04:57:14.006Z,78.78
2019-03-30T04:59:42.461Z,71.70
2019-03-30T05:02:10.878Z,69.50
2019-03-30T05:04:39.322Z,73.35
2019-03-30T05:07:07.770Z,69.95
2019-03-30T05:09:36.216Z,68.65
2019-03-30T05:12:04.681Z,76.72
2019-03-30T05:14:33.214Z,75.40
2019-03-30T05:17:01.717Z,84.95
2019-03-30T05:19:30.155Z,89.47
2019-03-30T05:22:11.405Z,83.45
2019-03-30T05:24:28.740Z,86.87
2019-03-30T05:26:58.477Z,82.12
2019-03-30T05:29:27.565Z,91.22
2019-03-30T05:31:56.013Z,84.32
2019-03-30T05:34:24.457Z,82.42
2019-03-30T05:36:52.884Z,83.25
2019-03-30T05:39:21.354Z,83.30
2019-03-30T05:41:49.837Z,78.78
2019-03-30T05:44:18.297Z,78.97
2019-03-30T05:46:46.738Z,81.95
2019-03-30T05:49:15.197Z,80.17
2019-03-30T05:51:43.610Z,84.67
2019-03-30T05:54:12.057Z,85.90
2019-03-30T05:56:40.512Z,90.03
2019-03-30T05:59:08.957Z,91.42
2019-03-30T06:01:37.403Z,92.88
2019-03-30T06:04:05.926Z,88.85
2019-03-30T06:06:34.427Z,88.10
2019-03-30T06:09:03.058Z,90.25
2019-03-30T06:11:31.518Z,91.65
2019-03-30T06:13:59.956Z,92.12
2019-03-30T06:16:28.391Z,90.12
2019-03-30T06:18:56.818Z,90.42
2019-03-30T06:21:25.266Z,92.72
2019-03-30T06:23:53.782Z,92.05
2019-03-30T06:26:22.359Z,87.42
2019-03-30T06:28:50.827Z,89.87
2019-03-30T06:31:19.261Z,91.67
2019-03-30T06:33:47.706Z,91.37
2019-03-30T06:36:16.148Z,93.72
2019-03-30T06:38:44.649Z,89.32
2019-03-30T06:41:13.101Z,91.12
2019-03-30T06:43:41.523Z,93.22
2019-03-30T06:46:09.958Z,93.33
2019-03-30T06:48:38.398Z,90.65
2019-03-30T06:51:06.857Z,93.27
2019-03-30T06:53:35.375Z,93.12
2019-03-30T06:56:05.930Z,89.77
2019-03-30T06:58:34.366Z,93.85
2019-03-30T07:01:02.825Z,92.42
2019-03-30T07:03:31.281Z,93.22
2019-03-30T07:06:01.091Z,93.42
2019-03-30T07:08:32.461Z,86.95
2019-03-30T07:11:05.461Z,89.00
2019-03-30T07:13:36.097Z,82.70
2019-03-30T07:16:04.687Z,90.83
2019-03-30T07:18:34.184Z,87.47
2019-03-30T07:21:04.645Z,83.12
2019-03-30T07:23:33.081Z,88.35
2019-03-30T07:26:01.536Z,88.52
2019-03-30T07:28:30.009Z,89.65
2019-03-30T07:30:58.443Z,93.50
2019-03-30T07:33:26.873Z,80.50
2019-03-30T07:35:55.324Z,82.53
2019-03-30T07:38:23.765Z,76.85
2019-03-30T07:40:52.198Z,85.92
2019-03-30T07:43:20.685Z,78.00
2019-03-30T07:45:49.203Z,77.80
2019-03-30T07:48:17.639Z,80.28
2019-03-30T07:50:46.144Z,74.10
2019-03-30T07:53:26.341Z,75.45
2019-03-30T07:55:46.301Z,66.47
2019-03-30T07:58:14.721Z,68.78
2019-03-30T08:00:43.178Z,70.60
2019-03-30T08:03:11.610Z,68.22
2019-03-30T08:05:40.108Z,69.58
2019-03-30T08:08:14.305Z,70.97
2019-03-30T08:10:42.786Z,70.78
2019-03-30T08:13:11.303Z,66.87
2019-03-30T08:15:48.169Z,61.45
2019-03-30T08:18:16.682Z,66.20
2019-03-30T08:20:45.110Z,64.30
2019-03-30T08:23:13.568Z,61.02
2019-03-30T08:25:42.027Z,61.15
2019-03-30T08:28:10.681Z,57.03
2019-03-30T08:30:39.209Z,50.10
2019-03-30T08:33:07.734Z,51.85
2019-03-30T08:35:36.240Z,44.53
2019-03-30T08:38:04.757Z,50.95
2019-03-30T08:40:33.266Z,46.88
2019-03-30T08:43:01.718Z,45.00
2019-03-30T08:45:30.179Z,42.25
2019-03-30T08:47:58.707Z,45.40
2019-03-30T08:50:28.496Z,41.75
2019-03-30T08:52:56.921Z,38.02
2019-03-30T08:55:25.367Z,40.83
2019-03-30T08:57:53.820Z,39.80
2019-03-30T09:00:34.052Z,37.70
2019-03-30T09:03:02.496Z,38.25
2019-03-30T09:05:30.947Z,39.35
2019-03-30T09:07:59.421Z,39.85
2019-03-30T09:10:27.865Z,39.33
2019-03-30T09:12:56.338Z,36.35
2019-03-30T09:15:24.785Z,38.98
2019-03-30T09:17:53.214Z,37.10
2019-03-30T09:20:21.663Z,36.85
2019-03-30T09:22:50.179Z,39.73
2019-03-30T09:25:18.627Z,38.45
2019-03-30T09:27:47.172Z,37.50
2019-03-30T09:30:18.261Z,38.28
2019-03-30T09:32:46.840Z,40.48
2019-03-30T09:35:15.270Z,38.75
2019-03-30T09:37:43.715Z,37.20
2019-03-30T09:40:13.310Z,37.03
2019-03-30T09:42:41.756Z,37.50
2019-03-30T09:45:10.643Z,39.27
2019-03-30T09:47:39.086Z,39.25
2019-03-30T09:50:08.339Z,37.50
2019-03-30T09:52:36.811Z,37.05
2019-03-30T09:55:06.892Z,39.20
2019-03-30T09:57:35.349Z,38.65
2019-03-30T10:00:07.252Z,37.17
2019-03-30T10:02:35.766Z,40.40
2019-03-30T10:05:04.449Z,36.68
2019-03-30T10:07:32.894Z,38.05
2019-03-30T10:10:01.323Z,38.05
2019-03-30T10:12:29.775Z,37.78
2019-03-30T10:14:58.210Z,37.65
2019-03-30T10:17:26.713Z,40.40
2019-03-30T10:20:04.176Z,37.30
2019-03-30T10:22:27.027Z,36.65
2019-03-30T10:24:58.307Z,36.28
2019-03-30T10:27:25.629Z,35.52
2019-03-30T10:29:54.062Z,39.15
2019-03-30T10:32:22.598Z,38.40
2019-03-30T10:34:51.076Z,37.60
2019-03-30T10:37:19.586Z,37.10
2019-03-30T10:39:48.020Z,36.98
2019-03-30T10:42:16.454Z,36.23
2019-03-30T10:44:45.208Z,35.45
2019-03-30T10:47:13.634Z,36.65
2019-03-30T10:49:42.101Z,34.55
2019-03-30T10:52:10.616Z,35.70
2019-03-30T10:54:51.960Z,37.23
2019-03-30T10:57:09.291Z,34.95
2019-03-30T10:59:37.727Z,37.70
2019-03-30T11:02:07.706Z,39.05
2019-03-30T11:04:37.603Z,35.35
2019-03-30T11:07:07.268Z,39.15
2019-03-30T11:09:35.769Z,41.20
2019-03-30T11:12:05.376Z,40.63
2019-03-30T11:14:33.823Z,36.25
2019-03-30T11:17:02.273Z,35.75
2019-03-30T11:19:31.303Z,39.42
2019-03-30T11:22:02.988Z,35.95
2019-03-30T11:24:29.917Z,40.23
2019-03-30T11:26:58.371Z,38.17
2019-03-30T11:29:26.830Z,40.88
2019-03-30T11:31:55.276Z,36.60
2019-03-30T11:34:23.739Z,34.85
2019-03-30T11:36:52.312Z,35.95
2019-03-30T11:39:21.719Z,35.30
2019-03-30T11:41:50.223Z,37.03
2019-03-30T11:44:18.674Z,36.90
2019-03-30T11:46:47.102Z,38.23
2019-03-30T11:49:15.573Z,40.28
2019-03-30T11:51:44.015Z,40.78
2019-03-30T11:54:12.442Z,36.03
2019-03-30T11:56:40.895Z,40.78
2019-03-30T11:59:09.354Z,38.48
2019-03-30T12:01:37.800Z,38.53
2019-03-30T12:04:06.241Z,38.83
2019-03-30T12:06:34.689Z,36.00
2019-03-30T12:09:03.874Z,35.63
2019-03-30T12:11:32.336Z,35.92
2019-03-30T12:14:00.785Z,37.23
2019-03-30T12:16:29.217Z,35.45
2019-03-30T12:18:57.684Z,36.58
2019-03-30T12:21:26.162Z,36.73
2019-03-30T12:23:54.602Z,36.15
2019-03-30T12:26:23.125Z,35.35
2019-03-30T12:28:51.599Z,36.35
2019-03-30T12:31:20.049Z,34.05
2019-03-30T12:33:48.482Z,33.20
2019-03-30T12:36:16.941Z,33.75
2019-03-30T12:38:45.396Z,32.88
2019-03-30T12:41:13.835Z,32.23
2019-03-30T12:43:42.285Z,31.70
2019-03-30T12:46:10.763Z,37.90
2019-03-30T12:48:39.182Z,31.80
2019-03-30T12:51:07.632Z,27.40
2019-03-30T12:53:49.179Z,26.62
2019-03-30T12:56:08.833Z,26.68
2019-03-30T12:58:36.460Z,27.05
2019-03-30T13:01:04.973Z,27.13
2019-03-30T13:03:33.413Z,27.20
2019-03-30T13:06:01.872Z,24.10
2019-03-30T13:08:30.320Z,24.15
2019-03-30T13:10:59.867Z,25.65
2019-03-30T13:13:28.384Z,29.48
2019-03-30T13:15:56.833Z,27.27
2019-03-30T13:18:25.275Z,27.10
2019-03-30T13:20:53.738Z,27.73
2019-03-30T13:23:22.225Z,25.95
2019-03-30T13:26:02.867Z,28.57
2019-03-30T13:28:20.951Z,25.65
2019-03-30T13:30:49.489Z,28.17
2019-03-30T13:33:18.024Z,26.48
2019-03-30T13:35:49.629Z,27.80
2019-03-30T13:38:20.602Z,25.37
2019-03-30T13:40:48.250Z,25.30
2019-03-30T13:43:16.683Z,25.15
2019-03-30T13:45:45.151Z,24.45
2019-03-30T13:48:13.574Z,25.25
2019-03-30T13:50:42.033Z,25.52
2019-03-30T13:53:10.468Z,21.82
2019-03-30T13:55:38.904Z,22.58
2019-03-30T13:58:07.357Z,21.93
2019-03-30T14:00:35.847Z,26.97
2019-03-30T14:03:04.609Z,27.27
2019-03-30T14:05:33.075Z,25.25
2019-03-30T14:08:01.528Z,25.45
2019-03-30T14:10:29.958Z,26.40
2019-03-30T14:12:58.413Z,22.50
2019-03-30T14:15:26.868Z,23.95
2019-03-30T14:17:55.302Z,25.08
2019-03-30T14:20:23.751Z,26.27
2019-03-30T14:22:52.201Z,26.15
2019-03-30T14:25:20.635Z,27.30
2019-03-30T14:27:49.098Z,28.85
2019-03-30T14:30:17.925Z,26.90
2019-03-30T14:32:46.358Z,25.25
2019-03-30T14:35:14.789Z,29.65
2019-03-30T14:37:43.339Z,25.30
2019-03-30T14:40:12.119Z,24.27
2019-03-30T14:42:40.569Z,24.27
2019-03-30T14:45:10.676Z,27.13
2019-03-30T14:47:39.116Z,24.77
2019-03-30T14:50:08.959Z,23.10
2019-03-30T14:52:37.401Z,29.65
2019-03-30T14:55:08.046Z,24.63
2019-03-30T14:57:36.579Z,25.62
2019-03-30T15:00:08.686Z,24.57
2019-03-30T15:02:37.143Z,22.93
2019-03-30T15:05:08.261Z,26.15
2019-03-30T15:07:36.783Z,26.23
2019-03-30T15:10:09.267Z,22.60
2019-03-30T15:12:38.333Z,20.55
2019-03-30T15:15:10.905Z,23.07
2019-03-30T15:17:40.890Z,24.50
2019-03-30T15:20:10.658Z,25.02
2019-03-30T15:22:39.143Z,20.72
2019-03-30T15:25:09.403Z,23.85
2019-03-30T15:27:37.844Z,21.65
2019-03-30T15:30:07.741Z,22.70
2019-03-30T15:32:36.170Z,21.73
2019-03-30T15:35:06.932Z,21.17
2019-03-30T15:37:35.426Z,20.08
2019-03-30T15:40:05.235Z,20.92
2019-03-30T15:42:33.820Z,22.22
2019-03-30T15:45:02.253Z,20.15
2019-03-30T15:47:30.694Z,20.43
2019-03-30T15:49:59.228Z,19.27
2019-03-30T15:52:27.681Z,20.35
2019-03-30T15:54:56.123Z,19.95
2019-03-30T15:57:25.438Z,19.37
2019-03-30T15:59:54.066Z,20.37
2019-03-30T16:02:23.046Z,18.67
2019-03-30T16:04:51.585Z,19.98
2019-03-30T16:07:20.029Z,20.25
2019-03-30T16:09:48.454Z,22.65
2019-03-30T16:12:16.910Z,19.62
2019-03-30T16:14:45.357Z,19.77
2019-03-30T16:17:14.960Z,20.52
2019-03-30T16:19:43.728Z,20.30
2019-03-30T16:22:12.185Z,19.25
2019-03-30T16:24:40.651Z,18.60
2019-03-30T16:27:09.172Z,18.65
2019-03-30T16:29:37.652Z,19.60
2019-03-30T16:32:06.093Z,18.85
2019-03-30T16:34:34.548Z,17.57
2019-03-30T16:37:02.988Z,18.05
2019-03-30T16:39:34.585Z,19.32
2019-03-30T16:42:01.605Z,20.43
2019-03-30T16:44:30.046Z,18.73
2019-03-30T16:46:58.509Z,19.73
2019-03-30T16:49:26.942Z,20.97
2019-03-30T16:51:55.412Z,22.93
2019-03-30T16:54:24.240Z,20.30
2019-03-30T16:56:52.694Z,19.80
2019-03-30T16:59:21.118Z,20.65
2019-03-30T17:01:49.550Z,23.65
2019-03-30T17:04:18.021Z,20.10
2019-03-30T17:06:46.466Z,22.17
2019-03-30T17:09:14.894Z,26.07
2019-03-30T17:11:43.402Z,33.38
2019-03-30T17:14:11.848Z,36.83
2019-03-30T17:16:40.299Z,48.35
2019-03-30T17:19:08.765Z,56.25
2019-03-30T17:21:37.385Z,61.95
2019-03-30T17:24:05.969Z,62.83
2019-03-30T17:26:36.382Z,63.60
2019-03-30T17:29:04.978Z,63.20
2019-03-30T17:31:33.423Z,63.00
2019-03-30T17:34:01.868Z,62.67
2019-03-30T17:36:30.317Z,62.00
2019-03-30T17:38:58.774Z,65.05
2019-03-30T17:41:27.226Z,65.28
2019-03-30T17:43:55.919Z,66.28
2019-03-30T17:46:24.548Z,66.22
2019-03-30T17:48:53.061Z,63.63
2019-03-30T17:51:21.932Z,65.10
2019-03-30T17:53:50.589Z,64.15
2019-03-30T17:56:19.418Z,64.45
2019-03-30T17:58:49.415Z,67.32
2019-03-30T18:01:18.941Z,66.53
2019-03-30T18:03:47.444Z,73.37
2019-03-30T18:06:16.212Z,75.67
2019-03-30T18:08:45.240Z,84.83
2019-03-30T18:11:15.125Z,83.85
2019-03-30T18:13:46.106Z,80.45
2019-03-30T18:16:14.727Z,83.70
2019-03-30T18:18:43.733Z,85.17
2019-03-30T18:21:15.115Z,84.67
2019-03-30T18:23:47.344Z,94.37
2019-03-30T18:26:14.958Z,86.60
2019-03-30T18:28:44.815Z,95.67
2019-03-30T18:31:15.143Z,90.95
2019-03-30T18:33:44.921Z,90.30
2019-03-30T18:36:26.282Z,99.32
2019-03-30T18:39:09.419Z,97.15
2019-03-30T18:41:32.304Z,98.20
2019-03-30T18:44:02.374Z,101.12
2019-03-30T18:46:31.342Z,97.57
2019-03-30T18:48:59.943Z,101.85
2019-03-30T18:51:28.934Z,101.60
2019-03-30T18:53:57.485Z,99.32
2019-03-30T18:56:27.923Z,96.67
2019-03-30T18:58:56.307Z,95.70
2019-03-30T19:01:24.957Z,92.72
2019-03-30T19:03:53.507Z,100.67
2019-03-30T19:06:22.047Z,89.07
2019-03-30T19:08:50.756Z,96.08
2019-03-30T19:11:19.483Z,94.62
2019-03-30T19:13:56.209Z,96.65
2019-03-30T19:16:24.658Z,109.52
2019-03-30T19:18:53.095Z,97.15
2019-03-30T19:21:21.571Z,106.85
2019-03-30T19:23:49.998Z,96.67
2019-03-30T19:26:18.455Z,100.50
2019-03-30T19:28:56.034Z,109.63
2019-03-30T19:31:17.075Z,99.77
2019-03-30T19:33:45.600Z,103.07
2019-03-30T19:36:14.051Z,107.85
2019-03-30T19:38:42.500Z,102.60
2019-03-30T19:41:10.944Z,101.00
2019-03-30T19:43:39.481Z,102.92
2019-03-30T19:46:08.893Z,106.97
2019-03-30T19:48:37.417Z,104.00
2019-03-30T19:51:06.020Z,97.92
2019-03-30T19:53:34.483Z,98.65
2019-03-30T19:56:02.949Z,102.27
2019-03-30T19:58:31.464Z,102.67
2019-03-30T20:00:59.919Z,102.82
2019-03-30T20:03:28.346Z,103.32
2019-03-30T20:05:56.810Z,101.47
2019-03-30T20:08:25.323Z,102.62
2019-03-30T20:10:53.773Z,107.25
2019-03-30T20:13:22.220Z,103.32
2019-03-30T20:15:50.670Z,103.42
2019-03-30T20:18:19.136Z,101.75
2019-03-30T20:20:47.595Z,106.32
2019-03-30T20:23:16.105Z,109.37
2019-03-30T20:25:44.534Z,104.90
2019-03-30T20:28:12.996Z,106.50
2019-03-30T20:30:41.435Z,104.25
2019-03-30T20:33:09.926Z,109.90
2019-03-30T20:35:38.460Z,108.17
2019-03-30T20:38:06.907Z,101.82
2019-03-30T20:40:54.686Z,102.65
2019-03-30T20:43:23.137Z,101.27
2019-03-30T20:45:51.583Z,96.00
2019-03-30T20:48:20.098Z,105.15
2019-03-30T20:50:48.539Z,103.95
2019-03-30T20:53:17.020Z,99.15
2019-03-30T20:55:45.450Z,102.22
2019-03-30T20:58:13.886Z,98.03
2019-03-30T21:00:42.334Z,101.25
2019-03-30T21:03:10.808Z,106.35
2019-03-30T21:05:39.243Z,112.45
2019-03-30T21:08:07.677Z,103.95
2019-03-30T21:10:36.177Z,108.60
2019-03-30T21:13:04.675Z,111.62
2019-03-30T21:15:33.131Z,115.75
2019-03-30T21:18:01.565Z,112.42
2019-03-30T21:20:30.002Z,119.30
2019-03-30T21:22:58.448Z,131.55
2019-03-30T21:25:26.893Z,120.53
2019-03-30T21:27:55.344Z,113.28
2019-03-30T21:30:23.856Z,117.67
2019-03-30T21:32:52.304Z,126.35
2019-03-30T21:35:20.812Z,124.35
2019-03-30T21:37:49.269Z,126.45
2019-03-30T21:40:17.729Z,128.50
2019-03-30T21:42:46.172Z,121.20
2019-03-30T21:45:33.984Z,123.00
2019-03-30T21:48:02.477Z,129.65
2019-03-30T21:50:30.937Z,130.18
2019-03-30T21:52:59.381Z,133.27
2019-03-30T21:55:27.938Z,141.37
2019-03-30T21:57:56.449Z,130.37
2019-03-30T22:00:35.932Z,135.85
2019-03-30T22:03:05.386Z,127.35
2019-03-30T22:05:35.374Z,135.48
2019-03-30T22:08:05.180Z,138.90
2019-03-30T22:10:33.637Z,131.70
2019-03-30T22:13:02.166Z,137.50
2019-03-30T22:15:30.670Z,140.75
2019-03-30T22:17:59.111Z,134.18
2019-03-30T22:20:27.562Z,138.30
2019-03-30T22:22:56.004Z,133.72
2019-03-30T22:25:24.464Z,143.50
2019-03-30T22:27:52.980Z,142.68
2019-03-30T22:30:25.091Z,133.43
2019-03-30T22:32:51.710Z,138.10
2019-03-30T22:35:20.162Z,136.25
2019-03-30T22:37:48.582Z,131.15
2019-03-30T22:40:17.105Z,130.20
2019-03-30T22:42:45.561Z,143.07
2019-03-30T22:45:14.465Z,134.63
2019-03-30T22:47:42.922Z,131.55
2019-03-30T22:50:12.004Z,134.03
2019-03-30T22:52:40.467Z,140.37
2019-03-30T22:55:09.039Z,132.87
2019-03-30T22:57:37.477Z,145.32
2019-03-30T23:00:08.295Z,135.90
2019-03-30T23:02:56.062Z,129.63
2019-03-30T23:05:24.508Z,137.50
2019-03-30T23:07:52.969Z,114.40
2019-03-30T23:10:21.410Z,113.47
2019-03-30T23:12:49.861Z,117.67
2019-03-30T23:15:18.282Z,114.05
2019-03-30T23:17:46.738Z,106.27
2019-03-30T23:20:15.353Z,101.35
2019-03-30T23:22:43.864Z,96.97
2019-03-30T23:25:12.366Z,95.92
2019-03-30T23:27:40.799Z,91.05
2019-03-30T23:30:09.481Z,81.02
2019-03-30T23:32:37.895Z,83.75
2019-03-30T23:35:07.098Z,79.92
2019-03-30T23:37:35.594Z,70.97
2019-03-30T23:40:06.223Z,73.12
2019-03-30T23:42:34.650Z,72.82
2019-03-30T23:45:03.178Z,66.67
2019-03-30T23:47:31.617Z,65.75
2019-03-30T23:50:00.330Z,72.67
2019-03-30T23:52:28.834Z,77.27
2019-03-30T23:54:57.259Z,67.60
2019-03-30T23:57:25.713Z,74.92
2019-03-30T23:59:54.134Z,70.17
